sensor_id;sensor_type;location;lat;lon;timestamp;pressure;altitude;pressure_sealevel;temperature;humidity
53651;BME280;39552;45.776;15.892;2023-02-11T00:00:02;102646.66;;;-0.83;100.00
53651;BME280;39552;45.776;15.892;2023-02-11T00:02:30;102642.91;;;-0.91;100.00
53651;BME280;39552;45.776;15.892;2023-02-11T00:04:57;102651.88;;;-1.21;100.00
53651;BME280;39552;45.776;15.892;2023-02-11T00:07:24;102646.03;;;-1.40;100.00
53651;BME280;39552;45.776;15.892;2023-02-11T00:09:51;102640.75;;;-1.38;100.00
53651;BME280;39552;45.776;15.892;2023-02-11T00:12:19;102647.25;;;-1.59;100.00
53651;BME280;39552;45.776;15.892;2023-02-11T00:14:46;102631.47;;;-1.54;100.00
53651;BME280;39552;45.776;15.892;2023-02-11T00:17:13;102655.06;;;-1.33;100.00
53651;BME280;39552;45.776;15.892;2023-02-11T00:19:40;102640.03;;;-1.64;100.00
53651;BME280;39552;45.776;15.892;2023-02-11T00:22:07;102651.44;;;-1.67;100.00
53651;BME280;39552;45.776;15.892;2023-02-11T00:24:34;102644.09;;;-1.45;100.00
53651;BME280;39552;45.776;15.892;2023-02-11T00:27:01;102640.72;;;-1.40;100.00
53651;BME280;39552;45.776;15.892;2023-02-11T00:29:29;102648.41;;;-1.50;100.00
53651;BME280;39552;45.776;15.892;2023-02-11T00:31:56;102638.19;;;-1.67;100.00
53651;BME280;39552;45.776;15.892;2023-02-11T00:34:23;102637.84;;;-1.47;100.00
53651;BME280;39552;45.776;15.892;2023-02-11T00:36:50;102627.66;;;-1.32;100.00
53651;BME280;39552;45.776;15.892;2023-02-11T00:39:17;102651.13;;;-1.47;100.00
53651;BME280;39552;45.776;15.892;2023-02-11T00:41:43;102652.50;;;-1.62;100.00
53651;BME280;39552;45.776;15.892;2023-02-11T00:44:10;102635.00;;;-1.85;100.00
53651;BME280;39552;45.776;15.892;2023-02-11T00:46:38;102649.16;;;-1.85;100.00
53651;BME280;39552;45.776;15.892;2023-02-11T00:49:05;102647.44;;;-1.83;100.00
53651;BME280;39552;45.776;15.892;2023-02-11T00:51:32;102625.78;;;-1.68;100.00
53651;BME280;39552;45.776;15.892;2023-02-11T00:53:58;102643.69;;;-1.59;100.00
53651;BME280;39552;45.776;15.892;2023-02-11T00:56:25;102650.19;;;-1.80;100.00
53651;BME280;39552;45.776;15.892;2023-02-11T00:58:52;102658.50;;;-1.67;100.00
53651;BME280;39552;45.776;15.892;2023-02-11T01:01:19;102645.13;;;-1.70;100.00
53651;BME280;39552;45.776;15.892;2023-02-11T01:03:47;102638.59;;;-1.83;100.00
53651;BME280;39552;45.776;15.892;2023-02-11T01:06:15;102630.41;;;-1.91;100.00
53651;BME280;39552;45.776;15.892;2023-02-11T01:08:42;102637.19;;;-1.70;100.00
53651;BME280;39552;45.776;15.892;2023-02-11T01:11:12;102621.84;;;-1.81;100.00
53651;BME280;39552;45.776;15.892;2023-02-11T01:13:40;102610.63;;;-2.02;100.00
53651;BME280;39552;45.776;15.892;2023-02-11T01:16:09;102611.41;;;-1.74;100.00
53651;BME280;39552;45.776;15.892;2023-02-11T01:18:37;102604.66;;;-1.63;100.00
53651;BME280;39552;45.776;15.892;2023-02-11T01:21:05;102615.88;;;-1.73;100.00
53651;BME280;39552;45.776;15.892;2023-02-11T01:23:32;102608.34;;;-1.58;100.00
53651;BME280;39552;45.776;15.892;2023-02-11T01:25:59;102590.47;;;-1.65;100.00
53651;BME280;39552;45.776;15.892;2023-02-11T01:28:27;102606.16;;;-2.03;100.00
53651;BME280;39552;45.776;15.892;2023-02-11T01:30:54;102606.03;;;-1.77;100.00
53651;BME280;39552;45.776;15.892;2023-02-11T01:33:22;102592.16;;;-1.67;100.00
53651;BME280;39552;45.776;15.892;2023-02-11T01:35:49;102605.56;;;-1.63;100.00
53651;BME280;39552;45.776;15.892;2023-02-11T01:38:19;102595.94;;;-1.89;100.00
53651;BME280;39552;45.776;15.892;2023-02-11T01:40:48;102576.91;;;-2.06;100.00
53651;BME280;39552;45.776;15.892;2023-02-11T01:43:15;102569.72;;;-2.10;100.00
53651;BME280;39552;45.776;15.892;2023-02-11T01:46:05;102578.00;;;-1.98;100.00
53651;BME280;39552;45.776;15.892;2023-02-11T01:48:40;102568.25;;;-1.99;100.00
53651;BME280;39552;45.776;15.892;2023-02-11T01:51:13;102553.31;;;-1.95;100.00
53651;BME280;39552;45.776;15.892;2023-02-11T01:53:44;102567.50;;;-1.95;100.00
53651;BME280;39552;45.776;15.892;2023-02-11T01:56:11;102561.88;;;-1.75;100.00
53651;BME280;39552;45.776;15.892;2023-02-11T01:58:40;102553.47;;;-1.91;100.00
53651;BME280;39552;45.776;15.892;2023-02-11T02:01:08;102556.72;;;-1.69;100.00
53651;BME280;39552;45.776;15.892;2023-02-11T02:03:38;102547.34;;;-1.56;100.00
53651;BME280;39552;45.776;15.892;2023-02-11T02:06:13;102541.97;;;-1.60;100.00
53651;BME280;39552;45.776;15.892;2023-02-11T02:08:47;102542.34;;;-1.77;100.00
53651;BME280;39552;45.776;15.892;2023-02-11T02:11:16;102543.09;;;-1.83;100.00
53651;BME280;39552;45.776;15.892;2023-02-11T02:13:43;102547.66;;;-1.77;100.00
53651;BME280;39552;45.776;15.892;2023-02-11T02:16:12;102530.25;;;-1.66;100.00
53651;BME280;39552;45.776;15.892;2023-02-11T02:18:45;102537.38;;;-1.32;100.00
53651;BME280;39552;45.776;15.892;2023-02-11T02:24:56;102531.38;;;-1.58;100.00
53651;BME280;39552;45.776;15.892;2023-02-11T02:27:49;102530.25;;;-1.68;100.00
53651;BME280;39552;45.776;15.892;2023-02-11T02:33:47;102495.34;;;-1.82;100.00
53651;BME280;39552;45.776;15.892;2023-02-11T02:36:21;102511.97;;;-1.55;100.00
53651;BME280;39552;45.776;15.892;2023-02-11T02:38:53;102500.59;;;-1.85;100.00
53651;BME280;39552;45.776;15.892;2023-02-11T02:41:23;102516.03;;;-1.70;100.00
53651;BME280;39552;45.776;15.892;2023-02-11T02:43:52;102512.41;;;-1.73;100.00
53651;BME280;39552;45.776;15.892;2023-02-11T02:46:23;102508.34;;;-1.59;100.00
53651;BME280;39552;45.776;15.892;2023-02-11T02:48:53;102480.19;;;-1.86;100.00
53651;BME280;39552;45.776;15.892;2023-02-11T02:51:29;102491.69;;;-1.87;100.00
53651;BME280;39552;45.776;15.892;2023-02-11T02:54:12;102492.25;;;-1.99;100.00
53651;BME280;39552;45.776;15.892;2023-02-11T02:56:47;102496.78;;;-1.61;100.00
53651;BME280;39552;45.776;15.892;2023-02-11T02:59:23;102489.28;;;-1.77;100.00
53651;BME280;39552;45.776;15.892;2023-02-11T03:01:59;102489.16;;;-1.82;100.00
53651;BME280;39552;45.776;15.892;2023-02-11T03:04:36;102484.88;;;-1.77;100.00
53651;BME280;39552;45.776;15.892;2023-02-11T03:07:09;102487.31;;;-1.85;100.00
53651;BME280;39552;45.776;15.892;2023-02-11T03:09:44;102469.78;;;-1.80;100.00
53651;BME280;39552;45.776;15.892;2023-02-11T03:12:11;102471.50;;;-1.80;100.00
53651;BME280;39552;45.776;15.892;2023-02-11T03:14:40;102481.13;;;-1.85;100.00
53651;BME280;39552;45.776;15.892;2023-02-11T03:17:07;102484.88;;;-1.77;100.00
53651;BME280;39552;45.776;15.892;2023-02-11T03:19:38;102476.19;;;-1.71;100.00
53651;BME280;39552;45.776;15.892;2023-02-11T03:22:10;102451.22;;;-1.78;100.00
53651;BME280;39552;45.776;15.892;2023-02-11T03:24:40;102460.31;;;-1.70;100.00
53651;BME280;39552;45.776;15.892;2023-02-11T03:27:11;102464.13;;;-1.59;100.00
53651;BME280;39552;45.776;15.892;2023-02-11T03:29:45;102453.88;;;-1.80;100.00
53651;BME280;39552;45.776;15.892;2023-02-11T03:32:19;102448.34;;;-1.87;100.00
53651;BME280;39552;45.776;15.892;2023-02-11T03:34:54;102462.91;;;-1.71;100.00
53651;BME280;39552;45.776;15.892;2023-02-11T03:37:26;102459.84;;;-1.87;100.00
53651;BME280;39552;45.776;15.892;2023-02-11T03:39:58;102445.34;;;-2.00;100.00
53651;BME280;39552;45.776;15.892;2023-02-11T03:42:29;102443.72;;;-1.94;100.00
53651;BME280;39552;45.776;15.892;2023-02-11T03:44:59;102444.94;;;-1.82;100.00
53651;BME280;39552;45.776;15.892;2023-02-11T03:47:31;102457.25;;;-1.85;100.00
53651;BME280;39552;45.776;15.892;2023-02-11T03:50:02;102441.44;;;-1.81;100.00
53651;BME280;39552;45.776;15.892;2023-02-11T03:52:31;102439.25;;;-1.97;100.00
53651;BME280;39552;45.776;15.892;2023-02-11T03:55:00;102443.97;;;-1.85;100.00
53651;BME280;39552;45.776;15.892;2023-02-11T03:57:28;102441.50;;;-2.11;100.00
53651;BME280;39552;45.776;15.892;2023-02-11T03:59:56;102448.88;;;-2.01;100.00
53651;BME280;39552;45.776;15.892;2023-02-11T04:02:26;102435.72;;;-1.96;100.00
53651;BME280;39552;45.776;15.892;2023-02-11T04:04:55;102444.19;;;-2.09;100.00
53651;BME280;39552;45.776;15.892;2023-02-11T04:07:23;102438.88;;;-1.77;100.00
53651;BME280;39552;45.776;15.892;2023-02-11T04:09:50;102433.06;;;-1.96;100.00
53651;BME280;39552;45.776;15.892;2023-02-11T04:12:17;102433.72;;;-2.05;100.00
53651;BME280;39552;45.776;15.892;2023-02-11T04:14:44;102425.88;;;-2.00;100.00
53651;BME280;39552;45.776;15.892;2023-02-11T04:17:11;102411.56;;;-2.07;100.00
53651;BME280;39552;45.776;15.892;2023-02-11T04:19:38;102422.16;;;-2.07;100.00
53651;BME280;39552;45.776;15.892;2023-02-11T04:22:06;102431.97;;;-2.04;100.00
53651;BME280;39552;45.776;15.892;2023-02-11T04:24:34;102431.00;;;-2.08;100.00
53651;BME280;39552;45.776;15.892;2023-02-11T04:27:01;102435.03;;;-2.21;100.00
53651;BME280;39552;45.776;15.892;2023-02-11T04:29:27;102417.09;;;-2.31;100.00
53651;BME280;39552;45.776;15.892;2023-02-11T04:31:54;102427.59;;;-2.34;100.00
53651;BME280;39552;45.776;15.892;2023-02-11T04:34:21;102408.75;;;-2.45;100.00
53651;BME280;39552;45.776;15.892;2023-02-11T04:36:48;102408.59;;;-2.51;100.00
53651;BME280;39552;45.776;15.892;2023-02-11T04:39:14;102406.88;;;-2.49;100.00
53651;BME280;39552;45.776;15.892;2023-02-11T04:41:43;102414.91;;;-2.46;100.00
53651;BME280;39552;45.776;15.892;2023-02-11T04:44:09;102403.66;;;-2.37;100.00
53651;BME280;39552;45.776;15.892;2023-02-11T04:46:36;102419.63;;;-2.35;100.00
53651;BME280;39552;45.776;15.892;2023-02-11T04:49:03;102421.72;;;-2.22;100.00
53651;BME280;39552;45.776;15.892;2023-02-11T04:51:29;102417.72;;;-2.08;100.00
53651;BME280;39552;45.776;15.892;2023-02-11T04:53:56;102425.00;;;-2.32;100.00
53651;BME280;39552;45.776;15.892;2023-02-11T04:56:23;102432.53;;;-2.16;100.00
53651;BME280;39552;45.776;15.892;2023-02-11T04:58:51;102437.69;;;-2.21;100.00
53651;BME280;39552;45.776;15.892;2023-02-11T05:01:18;102426.69;;;-2.65;100.00
53651;BME280;39552;45.776;15.892;2023-02-11T05:03:44;102440.56;;;-2.45;100.00
53651;BME280;39552;45.776;15.892;2023-02-11T05:06:11;102448.72;;;-2.37;100.00
53651;BME280;39552;45.776;15.892;2023-02-11T05:08:38;102443.50;;;-2.34;100.00
53651;BME280;39552;45.776;15.892;2023-02-11T05:11:06;102429.41;;;-2.33;100.00
53651;BME280;39552;45.776;15.892;2023-02-11T05:13:33;102427.78;;;-2.28;100.00
53651;BME280;39552;45.776;15.892;2023-02-11T05:16:01;102428.75;;;-2.24;100.00
53651;BME280;39552;45.776;15.892;2023-02-11T05:18:28;102433.97;;;-2.27;100.00
53651;BME280;39552;45.776;15.892;2023-02-11T05:20:55;102435.31;;;-2.43;100.00
53651;BME280;39552;45.776;15.892;2023-02-11T05:23:22;102428.56;;;-2.62;100.00
53651;BME280;39552;45.776;15.892;2023-02-11T05:25:48;102444.88;;;-2.48;100.00
53651;BME280;39552;45.776;15.892;2023-02-11T05:28:16;102442.09;;;-2.53;100.00
53651;BME280;39552;45.776;15.892;2023-02-11T05:30:42;102450.88;;;-2.54;100.00
53651;BME280;39552;45.776;15.892;2023-02-11T05:33:11;102433.63;;;-2.70;100.00
53651;BME280;39552;45.776;15.892;2023-02-11T05:35:37;102441.44;;;-2.74;100.00
53651;BME280;39552;45.776;15.892;2023-02-11T05:38:04;102427.56;;;-2.66;100.00
53651;BME280;39552;45.776;15.892;2023-02-11T05:40:31;102432.97;;;-2.63;100.00
53651;BME280;39552;45.776;15.892;2023-02-11T05:42:57;102422.00;;;-2.75;100.00
53651;BME280;39552;45.776;15.892;2023-02-11T05:45:24;102420.75;;;-2.86;100.00
53651;BME280;39552;45.776;15.892;2023-02-11T05:47:51;102414.53;;;-2.88;100.00
53651;BME280;39552;45.776;15.892;2023-02-11T05:50:19;102415.69;;;-2.79;100.00
53651;BME280;39552;45.776;15.892;2023-02-11T05:52:46;102406.50;;;-2.91;100.00
53651;BME280;39552;45.776;15.892;2023-02-11T05:55:13;102413.41;;;-2.97;100.00
53651;BME280;39552;45.776;15.892;2023-02-11T05:57:40;102411.09;;;-2.86;100.00
53651;BME280;39552;45.776;15.892;2023-02-11T06:00:07;102415.09;;;-2.99;100.00
53651;BME280;39552;45.776;15.892;2023-02-11T06:02:34;102398.28;;;-3.01;100.00
53651;BME280;39552;45.776;15.892;2023-02-11T06:05:01;102399.59;;;-2.86;100.00
53651;BME280;39552;45.776;15.892;2023-02-11T06:07:30;102391.25;;;-2.70;100.00
53651;BME280;39552;45.776;15.892;2023-02-11T06:09:56;102384.50;;;-2.59;100.00
53651;BME280;39552;45.776;15.892;2023-02-11T06:12:23;102385.31;;;-2.61;100.00
53651;BME280;39552;45.776;15.892;2023-02-11T06:14:50;102376.13;;;-2.72;100.00
53651;BME280;39552;45.776;15.892;2023-02-11T06:17:16;102380.00;;;-2.63;100.00
53651;BME280;39552;45.776;15.892;2023-02-11T06:19:43;102380.38;;;-2.79;100.00
53651;BME280;39552;45.776;15.892;2023-02-11T06:22:10;102391.09;;;-2.74;100.00
53651;BME280;39552;45.776;15.892;2023-02-11T06:24:38;102407.03;;;-2.73;100.00
53651;BME280;39552;45.776;15.892;2023-02-11T06:27:25;102394.06;;;-2.64;100.00
53651;BME280;39552;45.776;15.892;2023-02-11T06:29:51;102394.66;;;-2.74;100.00
53651;BME280;39552;45.776;15.892;2023-02-11T06:32:18;102385.13;;;-2.98;100.00
53651;BME280;39552;45.776;15.892;2023-02-11T06:35:06;102399.97;;;-2.72;100.00
53651;BME280;39552;45.776;15.892;2023-02-11T06:37:36;102386.94;;;-2.66;100.00
53651;BME280;39552;45.776;15.892;2023-02-11T06:40:05;102408.59;;;-2.51;100.00
53651;BME280;39552;45.776;15.892;2023-02-11T06:42:32;102404.47;;;-2.40;100.00
53651;BME280;39552;45.776;15.892;2023-02-11T06:44:59;102412.19;;;-2.47;100.00
53651;BME280;39552;45.776;15.892;2023-02-11T06:47:26;102418.91;;;-2.30;100.00
53651;BME280;39552;45.776;15.892;2023-02-11T06:49:52;102421.91;;;-2.48;100.00
53651;BME280;39552;45.776;15.892;2023-02-11T06:52:19;102419.34;;;-2.45;100.00
53651;BME280;39552;45.776;15.892;2023-02-11T06:54:46;102404.69;;;-2.32;100.00
53651;BME280;39552;45.776;15.892;2023-02-11T06:57:14;102414.53;;;-2.28;100.00
53651;BME280;39552;45.776;15.892;2023-02-11T06:59:41;102415.44;;;-2.27;100.00
53651;BME280;39552;45.776;15.892;2023-02-11T07:02:08;102431.38;;;-2.26;100.00
53651;BME280;39552;45.776;15.892;2023-02-11T07:04:35;102421.31;;;-2.06;100.00
53651;BME280;39552;45.776;15.892;2023-02-11T07:07:02;102432.22;;;-1.95;100.00
53651;BME280;39552;45.776;15.892;2023-02-11T07:09:28;102439.25;;;-1.97;100.00
53651;BME280;39552;45.776;15.892;2023-02-11T07:11:55;102425.13;;;-1.96;100.00
53651;BME280;39552;45.776;15.892;2023-02-11T07:14:23;102432.78;;;-1.73;100.00
53651;BME280;39552;45.776;15.892;2023-02-11T07:16:50;102418.81;;;-1.66;100.00
53651;BME280;39552;45.776;15.892;2023-02-11T07:19:17;102424.72;;;-1.42;100.00
53651;BME280;39552;45.776;15.892;2023-02-11T07:21:43;102430.94;;;-1.41;100.00
53651;BME280;39552;45.776;15.892;2023-02-11T07:24:11;102427.19;;;-1.49;100.00
53651;BME280;39552;45.776;15.892;2023-02-11T07:26:39;102405.22;;;-1.44;100.00
53651;BME280;39552;45.776;15.892;2023-02-11T07:29:06;102419.47;;;-1.40;100.00
53651;BME280;39552;45.776;15.892;2023-02-11T07:31:34;102417.25;;;-1.22;100.00
53651;BME280;39552;45.776;15.892;2023-02-11T07:34:01;102402.09;;;-1.27;100.00
53651;BME280;39552;45.776;15.892;2023-02-11T07:36:29;102413.03;;;-1.13;100.00
53651;BME280;39552;45.776;15.892;2023-02-11T07:38:56;102427.72;;;-1.29;100.00
53651;BME280;39552;45.776;15.892;2023-02-11T07:41:23;102419.59;;;-0.97;100.00
53651;BME280;39552;45.776;15.892;2023-02-11T07:43:51;102421.53;;;-0.90;100.00
53651;BME280;39552;45.776;15.892;2023-02-11T07:46:19;102418.25;;;-1.16;100.00
53651;BME280;39552;45.776;15.892;2023-02-11T07:48:48;102423.47;;;-1.21;100.00
53651;BME280;39552;45.776;15.892;2023-02-11T07:51:17;102400.00;;;-1.01;100.00
53651;BME280;39552;45.776;15.892;2023-02-11T07:53:44;102437.56;;;-0.86;100.00
53651;BME280;39552;45.776;15.892;2023-02-11T07:56:13;102433.28;;;-0.79;100.00
53651;BME280;39552;45.776;15.892;2023-02-11T07:58:40;102418.28;;;-0.77;100.00
53651;BME280;39552;45.776;15.892;2023-02-11T08:01:08;102418.72;;;-0.96;100.00
53651;BME280;39552;45.776;15.892;2023-02-11T08:03:36;102413.28;;;-0.62;100.00
53651;BME280;39552;45.776;15.892;2023-02-11T08:06:06;102419.63;;;-0.55;100.00
53651;BME280;39552;45.776;15.892;2023-02-11T08:08:33;102401.28;;;-0.41;100.00
53651;BME280;39552;45.776;15.892;2023-02-11T08:11:05;102416.53;;;-0.32;100.00
53651;BME280;39552;45.776;15.892;2023-02-11T08:13:32;102409.03;;;-0.09;100.00
53651;BME280;39552;45.776;15.892;2023-02-11T08:15:58;102405.44;;;-0.11;100.00
53651;BME280;39552;45.776;15.892;2023-02-11T08:18:25;102400.28;;;-0.01;100.00
53651;BME280;39552;45.776;15.892;2023-02-11T08:20:52;102414.09;;;0.26;100.00
53651;BME280;39552;45.776;15.892;2023-02-11T08:23:20;102399.84;;;0.24;100.00
53651;BME280;39552;45.776;15.892;2023-02-11T08:25:47;102406.34;;;0.39;100.00
53651;BME280;39552;45.776;15.892;2023-02-11T08:28:13;102401.00;;;0.39;100.00
53651;BME280;39552;45.776;15.892;2023-02-11T08:30:40;102398.66;;;0.59;100.00
53651;BME280;39552;45.776;15.892;2023-02-11T08:33:07;102386.50;;;0.77;100.00
53651;BME280;39552;45.776;15.892;2023-02-11T08:35:34;102384.44;;;1.18;100.00
53651;BME280;39552;45.776;15.892;2023-02-11T08:38:01;102376.13;;;0.95;100.00
53651;BME280;39552;45.776;15.892;2023-02-11T08:40:29;102390.66;;;1.19;100.00
53651;BME280;39552;45.776;15.892;2023-02-11T08:42:55;102386.47;;;1.38;100.00
53651;BME280;39552;45.776;15.892;2023-02-11T08:45:22;102389.63;;;1.81;100.00
53651;BME280;39552;45.776;15.892;2023-02-11T08:47:49;102395.94;;;1.88;100.00
53651;BME280;39552;45.776;15.892;2023-02-11T08:50:16;102393.41;;;2.02;100.00
53651;BME280;39552;45.776;15.892;2023-02-11T08:52:42;102393.69;;;2.31;100.00
53651;BME280;39552;45.776;15.892;2023-02-11T08:55:09;102392.81;;;2.35;100.00
53651;BME280;39552;45.776;15.892;2023-02-11T08:57:38;102381.34;;;2.45;100.00
53651;BME280;39552;45.776;15.892;2023-02-11T09:00:06;102367.91;;;2.38;100.00
53651;BME280;39552;45.776;15.892;2023-02-11T09:02:33;102382.22;;;2.43;100.00
53651;BME280;39552;45.776;15.892;2023-02-11T09:04:59;102390.25;;;2.46;100.00
53651;BME280;39552;45.776;15.892;2023-02-11T09:07:27;102394.72;;;2.47;100.00
53651;BME280;39552;45.776;15.892;2023-02-11T09:09:53;102378.59;;;2.38;100.00
53651;BME280;39552;45.776;15.892;2023-02-11T09:12:20;102398.31;;;2.47;100.00
53651;BME280;39552;45.776;15.892;2023-02-11T09:14:48;102395.69;;;2.56;100.00
53651;BME280;39552;45.776;15.892;2023-02-11T09:17:15;102387.81;;;2.77;100.00
53651;BME280;39552;45.776;15.892;2023-02-11T09:19:42;102391.31;;;2.65;100.00
53651;BME280;39552;45.776;15.892;2023-02-11T09:22:08;102388.66;;;2.69;100.00
53651;BME280;39552;45.776;15.892;2023-02-11T09:24:35;102389.66;;;2.82;100.00
53651;BME280;39552;45.776;15.892;2023-02-11T09:27:02;102392.34;;;2.88;100.00
53651;BME280;39552;45.776;15.892;2023-02-11T09:29:29;102369.16;;;2.83;100.00
53651;BME280;39552;45.776;15.892;2023-02-11T09:31:57;102378.09;;;2.91;98.40
53651;BME280;39552;45.776;15.892;2023-02-11T09:34:23;102388.84;;;2.94;96.85
53651;BME280;39552;45.776;15.892;2023-02-11T09:36:50;102382.69;;;3.07;95.95
53651;BME280;39552;45.776;15.892;2023-02-11T09:39:18;102383.53;;;3.06;94.23
53651;BME280;39552;45.776;15.892;2023-02-11T09:42:18;102380.09;;;3.23;95.37
53651;BME280;39552;45.776;15.892;2023-02-11T09:44:50;102372.97;;;3.29;94.41
53651;BME280;39552;45.776;15.892;2023-02-11T09:47:24;102380.16;;;3.37;94.48
53651;BME280;39552;45.776;15.892;2023-02-11T09:49:57;102371.19;;;3.27;93.41
53651;BME280;39552;45.776;15.892;2023-02-11T09:52:32;102358.66;;;3.24;90.99
53651;BME280;39552;45.776;15.892;2023-02-11T09:55:03;102349.72;;;3.16;91.65
53651;BME280;39552;45.776;15.892;2023-02-11T09:57:33;102339.88;;;3.10;92.33
53651;BME280;39552;45.776;15.892;2023-02-11T10:00:06;102355.94;;;3.07;91.91
53651;BME280;39552;45.776;15.892;2023-02-11T10:02:54;102365.78;;;3.19;92.48
53651;BME280;39552;45.776;15.892;2023-02-11T10:05:32;102362.19;;;3.14;92.79
53651;BME280;39552;45.776;15.892;2023-02-11T10:08:07;102364.03;;;3.26;91.95
53651;BME280;39552;45.776;15.892;2023-02-11T10:10:46;102348.91;;;3.29;89.63
53651;BME280;39552;45.776;15.892;2023-02-11T10:13:34;102340.88;;;3.35;89.72
53651;BME280;39552;45.776;15.892;2023-02-11T10:16:17;102342.72;;;3.55;89.49
53651;BME280;39552;45.776;15.892;2023-02-11T10:21:50;102343.72;;;3.83;87.46
53651;BME280;39552;45.776;15.892;2023-02-11T10:24:23;102347.28;;;3.87;85.46
53651;BME280;39552;45.776;15.892;2023-02-11T10:26:51;102341.03;;;3.91;85.89
53651;BME280;39552;45.776;15.892;2023-02-11T10:29:26;102340.13;;;3.84;83.85
53651;BME280;39552;45.776;15.892;2023-02-11T10:32:00;102337.50;;;4.12;84.75
53651;BME280;39552;45.776;15.892;2023-02-11T10:34:31;102330.34;;;4.37;82.97
53651;BME280;39552;45.776;15.892;2023-02-11T10:36:57;102327.66;;;4.42;81.65
53651;BME280;39552;45.776;15.892;2023-02-11T10:39:26;102322.28;;;4.60;80.95
53651;BME280;39552;45.776;15.892;2023-02-11T10:41:55;102307.06;;;4.76;78.72
53651;BME280;39552;45.776;15.892;2023-02-11T10:44:26;102303.44;;;4.86;78.44
53651;BME280;39552;45.776;15.892;2023-02-11T10:46:55;102296.28;;;4.91;76.00
53651;BME280;39552;45.776;15.892;2023-02-11T10:49:37;102305.97;;;5.23;76.09
53651;BME280;39552;45.776;15.892;2023-02-11T10:52:26;102289.84;;;5.32;74.85
53651;BME280;39552;45.776;15.892;2023-02-11T10:54:59;102286.31;;;5.21;72.64
53651;BME280;39552;45.776;15.892;2023-02-11T10:57:29;102264.88;;;5.18;70.88
53651;BME280;39552;45.776;15.892;2023-02-11T10:59:58;102262.97;;;5.42;70.39
53651;BME280;39552;45.776;15.892;2023-02-11T11:02:28;102270.91;;;5.60;70.03
53651;BME280;39552;45.776;15.892;2023-02-11T11:04:56;102266.31;;;5.75;69.84
53651;BME280;39552;45.776;15.892;2023-02-11T11:07:25;102253.06;;;5.50;69.38
53651;BME280;39552;45.776;15.892;2023-02-11T11:09:56;102258.38;;;5.58;67.80
53651;BME280;39552;45.776;15.892;2023-02-11T11:12:27;102257.41;;;5.69;68.54
53651;BME280;39552;45.776;15.892;2023-02-11T11:14:54;102250.97;;;5.92;68.23
53651;BME280;39552;45.776;15.892;2023-02-11T11:17:21;102229.59;;;5.80;68.48
53651;BME280;39552;45.776;15.892;2023-02-11T11:19:48;102233.00;;;6.03;68.21
53651;BME280;39552;45.776;15.892;2023-02-11T11:22:21;102240.13;;;6.10;68.75
53651;BME280;39552;45.776;15.892;2023-02-11T11:24:48;102240.94;;;6.16;66.46
53651;BME280;39552;45.776;15.892;2023-02-11T11:27:17;102231.34;;;5.84;64.51
53651;BME280;39552;45.776;15.892;2023-02-11T11:29:47;102234.84;;;5.97;64.43
53651;BME280;39552;45.776;15.892;2023-02-11T11:32:17;102208.13;;;5.74;64.36
53651;BME280;39552;45.776;15.892;2023-02-11T11:34:49;102213.47;;;5.80;64.26
53651;BME280;39552;45.776;15.892;2023-02-11T11:37:23;102211.75;;;5.69;64.27
53651;BME280;39552;45.776;15.892;2023-02-11T11:39:55;102212.69;;;5.65;65.13
53651;BME280;39552;45.776;15.892;2023-02-11T11:42:27;102220.06;;;5.37;63.84
53651;BME280;39552;45.776;15.892;2023-02-11T11:44:57;102223.56;;;5.42;64.58
53651;BME280;39552;45.776;15.892;2023-02-11T11:47:30;102212.88;;;5.36;63.40
53651;BME280;39552;45.776;15.892;2023-02-11T11:50:24;102201.31;;;5.29;63.68
53651;BME280;39552;45.776;15.892;2023-02-11T11:53:00;102198.63;;;5.29;63.50
53651;BME280;39552;45.776;15.892;2023-02-11T11:55:33;102210.22;;;5.35;63.10
53651;BME280;39552;45.776;15.892;2023-02-11T11:58:00;102200.44;;;5.27;62.68
53651;BME280;39552;45.776;15.892;2023-02-11T12:00:35;102199.53;;;5.30;63.14
53651;BME280;39552;45.776;15.892;2023-02-11T12:03:21;102181.66;;;5.24;63.72
53651;BME280;39552;45.776;15.892;2023-02-11T12:06:06;102189.72;;;5.26;64.77
53651;BME280;39552;45.776;15.892;2023-02-11T12:08:44;102174.50;;;5.23;63.52
53651;BME280;39552;45.776;15.892;2023-02-11T12:11:20;102181.72;;;5.17;63.24
53651;BME280;39552;45.776;15.892;2023-02-11T12:14:11;102170.09;;;5.16;63.78
53651;BME280;39552;45.776;15.892;2023-02-11T12:16:51;102167.34;;;5.25;63.68
53651;BME280;39552;45.776;15.892;2023-02-11T12:22:35;102151.09;;;5.44;63.70
53651;BME280;39552;45.776;15.892;2023-02-11T12:25:20;102139.38;;;5.57;64.04
53651;BME280;39552;45.776;15.892;2023-02-11T12:27:53;102128.50;;;5.69;63.61
53651;BME280;39552;45.776;15.892;2023-02-11T12:30:37;102120.28;;;5.85;64.10
53651;BME280;39552;45.776;15.892;2023-02-11T12:33:14;102112.28;;;5.80;63.51
53651;BME280;39552;45.776;15.892;2023-02-11T12:35:53;102113.84;;;6.04;63.59
53651;BME280;39552;45.776;15.892;2023-02-11T12:38:34;102119.16;;;6.12;62.67
53651;BME280;39552;45.776;15.892;2023-02-11T12:41:18;102110.16;;;6.16;62.00
53651;BME280;39552;45.776;15.892;2023-02-11T12:43:49;102091.13;;;6.33;63.31
53651;BME280;39552;45.776;15.892;2023-02-11T12:46:32;102098.19;;;6.43;61.96
53651;BME280;39552;45.776;15.892;2023-02-11T12:49:17;102091.03;;;6.39;60.59
53651;BME280;39552;45.776;15.892;2023-02-11T12:52:08;102102.63;;;6.46;61.04
53651;BME280;39552;45.776;15.892;2023-02-11T12:54:40;102096.41;;;6.42;61.43
53651;BME280;39552;45.776;15.892;2023-02-11T12:57:16;102088.34;;;6.39;61.93
53651;BME280;39552;45.776;15.892;2023-02-11T12:59:48;102077.84;;;6.22;62.39
53651;BME280;39552;45.776;15.892;2023-02-11T13:02:23;102085.06;;;6.19;61.58